sensor_id;sensor_type;location;lat;lon;timestamp;pressure;altitude;pressure_sealevel;temperature;humidity
38253;BME280;24785;52.372;20.672;2023-07-13T00:08:32;100203.59;;;15.80;100.00
38253;BME280;24785;52.372;20.672;2023-07-13T00:18:33;100197.72;;;15.78;100.00
38253;BME280;24785;52.372;20.672;2023-07-13T00:28:34;100190.88;;;15.80;100.00
38253;BME280;24785;52.372;20.672;2023-07-13T00:38:36;100177.97;;;15.68;100.00
38253;BME280;24785;52.372;20.672;2023-07-13T00:48:37;100165.59;;;15.67;100.00
38253;BME280;24785;52.372;20.672;2023-07-13T00:58:39;100166.06;;;15.69;100.00
38253;BME280;24785;52.372;20.672;2023-07-13T01:08:40;100178.31;;;15.44;100.00
38253;BME280;24785;52.372;20.672;2023-07-13T01:18:41;100191.13;;;15.30;100.00
38253;BME280;24785;52.372;20.672;2023-07-13T01:28:42;100192.91;;;15.35;100.00
38253;BME280;24785;52.372;20.672;2023-07-13T01:38:43;100225.25;;;15.26;100.00
38253;BME280;24785;52.372;20.672;2023-07-13T01:48:44;100213.97;;;15.24;100.00
38253;BME280;24785;52.372;20.672;2023-07-13T01:58:45;100199.81;;;15.19;100.00
38253;BME280;24785;52.372;20.672;2023-07-13T02:08:46;100200.22;;;15.12;100.00
38253;BME280;24785;52.372;20.672;2023-07-13T02:18:47;100205.13;;;15.10;100.00
38253;BME280;24785;52.372;20.672;2023-07-13T02:28:47;100207.66;;;15.06;100.00
38253;BME280;24785;52.372;20.672;2023-07-13T02:38:49;100226.47;;;14.98;100.00
38253;BME280;24785;52.372;20.672;2023-07-13T02:48:50;100219.06;;;15.03;100.00
38253;BME280;24785;52.372;20.672;2023-07-13T02:58:51;100230.47;;;15.00;100.00
38253;BME280;24785;52.372;20.672;2023-07-13T03:08:52;100219.94;;;14.90;100.00
38253;BME280;24785;52.372;20.672;2023-07-13T03:18:54;100213.72;;;15.12;100.00
38253;BME280;24785;52.372;20.672;2023-07-13T03:28:55;100227.16;;;15.26;100.00
38253;BME280;24785;52.372;20.672;2023-07-13T03:38:57;100225.00;;;16.33;100.00
38253;BME280;24785;52.372;20.672;2023-07-13T03:48:58;100274.16;;;17.47;100.00
38253;BME280;24785;52.372;20.672;2023-07-13T03:58:59;100293.72;;;19.75;100.00
38253;BME280;24785;52.372;20.672;2023-07-13T04:09:00;100296.72;;;20.55;100.00
38253;BME280;24785;52.372;20.672;2023-07-13T04:19:02;100314.81;;;22.35;90.06
38253;BME280;24785;52.372;20.672;2023-07-13T04:29:02;100315.25;;;23.91;78.58
38253;BME280;24785;52.372;20.672;2023-07-13T04:39:04;100312.69;;;22.12;89.79
38253;BME280;24785;52.372;20.672;2023-07-13T04:49:05;100331.38;;;21.23;100.00
38253;BME280;24785;52.372;20.672;2023-07-13T04:59:06;100353.50;;;20.32;100.00
38253;BME280;24785;52.372;20.672;2023-07-13T05:09:07;100359.81;;;19.88;100.00
38253;BME280;24785;52.372;20.672;2023-07-13T05:19:08;100365.75;;;20.02;100.00
38253;BME280;24785;52.372;20.672;2023-07-13T05:29:09;100372.69;;;19.78;100.00
38253;BME280;24785;52.372;20.672;2023-07-13T05:39:10;100380.31;;;20.42;100.00
38253;BME280;24785;52.372;20.672;2023-07-13T05:49:12;100377.22;;;20.93;100.00
38253;BME280;24785;52.372;20.672;2023-07-13T05:59:13;100380.09;;;21.24;100.00
38253;BME280;24785;52.372;20.672;2023-07-13T06:09:14;100370.31;;;21.79;100.00
38253;BME280;24785;52.372;20.672;2023-07-13T06:19:14;100375.31;;;22.37;100.00
38253;BME280;24785;52.372;20.672;2023-07-13T06:29:15;100377.34;;;22.90;100.00
38253;BME280;24785;52.372;20.672;2023-07-13T06:39:16;100355.75;;;23.63;100.00
38253;BME280;24785;52.372;20.672;2023-07-13T06:49:17;100356.66;;;23.90;96.12
38253;BME280;24785;52.372;20.672;2023-07-13T06:59:18;100355.44;;;24.33;88.84
38253;BME280;24785;52.372;20.672;2023-07-13T07:09:19;100340.44;;;24.76;80.63
38253;BME280;24785;52.372;20.672;2023-07-13T07:19:20;100330.44;;;25.54;73.44
38253;BME280;24785;52.372;20.672;2023-07-13T07:29:21;100324.13;;;26.39;61.90
38253;BME280;24785;52.372;20.672;2023-07-13T07:39:23;100323.00;;;26.47;58.39
38253;BME280;24785;52.372;20.672;2023-07-13T07:49:24;100314.81;;;27.48;56.74
38253;BME280;24785;52.372;20.672;2023-07-13T07:59:26;100302.19;;;28.68;55.59
38253;BME280;24785;52.372;20.672;2023-07-13T08:09:27;100319.13;;;28.66;53.17
38253;BME280;24785;52.372;20.672;2023-07-13T08:19:28;100336.84;;;28.69;53.71
38253;BME280;24785;52.372;20.672;2023-07-13T08:29:29;100320.00;;;28.13;52.63
38253;BME280;24785;52.372;20.672;2023-07-13T08:39:32;100331.03;;;28.38;54.23
38253;BME280;24785;52.372;20.672;2023-07-13T08:49:33;100346.38;;;28.07;56.13
38253;BME280;24785;52.372;20.672;2023-07-13T08:59:35;100404.88;;;22.19;67.19
38253;BME280;24785;52.372;20.672;2023-07-13T09:19:43;100402.59;;;21.09;78.72
38253;BME280;24785;52.372;20.672;2023-07-13T09:29:47;100385.06;;;20.58;96.28
38253;BME280;24785;52.372;20.672;2023-07-13T09:39:48;100389.47;;;19.47;100.00
38253;BME280;24785;52.372;20.672;2023-07-13T09:49:54;100419.94;;;18.44;100.00
38253;BME280;24785;52.372;20.672;2023-07-13T09:59:55;100382.25;;;18.21;100.00
38253;BME280;24785;52.372;20.672;2023-07-13T10:10:00;100363.34;;;17.96;100.00
38253;BME280;24785;52.372;20.672;2023-07-13T10:20:02;100378.88;;;17.69;100.00
38253;BME280;24785;52.372;20.672;2023-07-13T10:30:09;100350.66;;;17.70;100.00
38253;BME280;24785;52.372;20.672;2023-07-13T10:40:16;100367.56;;;17.67;100.00
38253;BME280;24785;52.372;20.672;2023-07-13T10:50:19;100377.09;;;17.65;100.00
38253;BME280;24785;52.372;20.672;2023-07-13T11:00:21;100406.09;;;17.81;100.00
38253;BME280;24785;52.372;20.672;2023-07-13T11:20:41;100385.34;;;17.94;100.00
38253;BME280;24785;52.372;20.672;2023-07-13T11:40:47;100380.28;;;18.69;100.00
38253;BME280;24785;52.372;20.672;2023-07-13T11:51:22;100370.78;;;19.04;100.00
38253;BME280;24785;52.372;20.672;2023-07-13T12:01:23;100397.91;;;18.83;100.00
38253;BME280;24785;52.372;20.672;2023-07-13T12:11:25;100405.38;;;18.66;100.00
38253;BME280;24785;52.372;20.672;2023-07-13T12:21:30;100425.63;;;18.98;100.00
38253;BME280;24785;52.372;20.672;2023-07-13T12:31:33;100441.47;;;19.37;100.00
38253;BME280;24785;52.372;20.672;2023-07-13T12:41:35;100447.31;;;19.27;100.00
38253;BME280;24785;52.372;20.672;2023-07-13T12:51:35;100460.22;;;19.30;100.00
38253;BME280;24785;52.372;20.672;2023-07-13T13:01:37;100469.63;;;19.33;100.00
38253;BME280;24785;52.372;20.672;2023-07-13T13:11:38;100457.44;;;19.18;100.00
38253;BME280;24785;52.372;20.672;2023-07-13T13:21:40;100444.69;;;19.60;100.00
38253;BME280;24785;52.372;20.672;2023-07-13T13:31:42;100442.69;;;20.02;100.00
38253;BME280;24785;52.372;20.672;2023-07-13T13:41:43;100452.44;;;20.49;100.00
38253;BME280;24785;52.372;20.672;2023-07-13T13:51:44;100460.84;;;20.56;100.00
38253;BME280;24785;52.372;20.672;2023-07-13T14:01:45;100468.31;;;20.71;100.00
38253;BME280;24785;52.372;20.672;2023-07-13T14:11:49;100461.88;;;20.88;100.00
38253;BME280;24785;52.372;20.672;2023-07-13T14:21:50;100475.59;;;20.55;100.00
38253;BME280;24785;52.372;20.672;2023-07-13T14:31:54;100464.94;;;20.29;100.00
38253;BME280;24785;52.372;20.672;2023-07-13T14:41:55;100477.97;;;20.23;100.00
38253;BME280;24785;52.372;20.672;2023-07-13T14:51:57;100475.44;;;20.06;100.00
38253;BME280;24785;52.372;20.672;2023-07-13T15:01:59;100473.28;;;19.99;100.00
38253;BME280;24785;52.372;20.672;2023-07-13T15:11:59;100479.97;;;20.02;100.00
38253;BME280;24785;52.372;20.672;2023-07-13T15:22:00;100477.47;;;19.97;100.00
38253;BME280;24785;52.372;20.672;2023-07-13T15:32:02;100474.06;;;20.00;100.00
38253;BME280;24785;52.372;20.672;2023-07-13T15:42:03;100464.13;;;20.04;100.00
38253;BME280;24785;52.372;20.672;2023-07-13T15:52:04;100474.66;;;20.05;100.00
38253;BME280;24785;52.372;20.672;2023-07-13T16:02:38;100479.56;;;20.24;100.00
38253;BME280;24785;52.372;20.672;2023-07-13T16:12:32;100469.38;;;20.33;100.00
38253;BME280;24785;52.372;20.672;2023-07-13T16:22:36;100469.91;;;20.48;100.00
38253;BME280;24785;52.372;20.672;2023-07-13T16:32:38;100481.47;;;20.45;100.00
38253;BME280;24785;52.372;20.672;2023-07-13T16:42:39;100480.25;;;20.54;100.00
38253;BME280;24785;52.372;20.672;2023-07-13T16:52:39;100490.44;;;20.57;100.00
38253;BME280;24785;52.372;20.672;2023-07-13T17:02:40;100500.22;;;20.58;100.00
38253;BME280;24785;52.372;20.672;2023-07-13T17:12:41;100509.16;;;20.59;100.00
38253;BME280;24785;52.372;20.672;2023-07-13T17:22:43;100519.38;;;20.62;100.00
38253;BME280;24785;52.372;20.672;2023-07-13T17:32:47;100522.22;;;20.53;100.00
38253;BME280;24785;52.372;20.672;2023-07-13T17:42:49;100514.06;;;20.32;100.00
38253;BME280;24785;52.372;20.672;2023-07-13T17:52:54;100502.59;;;20.27;100.00
38253;BME280;24785;52.372;20.672;2023-07-13T18:02:57;100480.38;;;20.25;100.00
38253;BME280;24785;52.372;20.672;2023-07-13T18:13:00;100480.66;;;19.99;100.00
38253;BME280;24785;52.372;20.672;2023-07-13T18:23:02;100474.59;;;19.60;100.00
38253;BME280;24785;52.372;20.672;2023-07-13T18:33:03;100481.75;;;19.14;100.00
38253;BME280;24785;52.372;20.672;2023-07-13T18:43:05;100482.13;;;18.75;100.00
38253;BME280;24785;52.372;20.672;2023-07-13T18:53:09;100479.50;;;18.40;100.00
38253;BME280;24785;52.372;20.672;2023-07-13T19:03:13;100463.00;;;18.07;100.00
38253;BME280;24785;52.372;20.672;2023-07-13T19:13:17;100460.19;;;17.69;100.00
38253;BME280;24785;52.372;20.672;2023-07-13T19:23:27;100453.47;;;17.75;100.00
38253;BME280;24785;52.372;20.672;2023-07-13T19:33:35;100433.84;;;17.87;100.00
38253;BME280;24785;52.372;20.672;2023-07-13T19:43:36;100433.66;;;17.92;100.00
38253;BME280;24785;52.372;20.672;2023-07-13T19:53:39;100430.97;;;17.83;100.00
38253;BME280;24785;52.372;20.672;2023-07-13T20:03:40;100448.53;;;17.77;100.00
38253;BME280;24785;52.372;20.672;2023-07-13T20:13:41;100454.59;;;17.74;100.00
38253;BME280;24785;52.372;20.672;2023-07-13T20:23:42;100449.00;;;17.71;100.00
38253;BME280;24785;52.372;20.672;2023-07-13T20:33:44;100459.19;;;17.65;100.00
38253;BME280;24785;52.372;20.672;2023-07-13T20:43:45;100456.97;;;17.58;100.00
38253;BME280;24785;52.372;20.672;2023-07-13T20:53:46;100471.63;;;17.57;100.00
38253;BME280;24785;52.372;20.672;2023-07-13T21:03:47;100469.88;;;17.53;100.00
38253;BME280;24785;52.372;20.672;2023-07-13T21:13:49;100478.47;;;17.46;100.00
38253;BME280;24785;52.372;20.672;2023-07-13T21:23:50;100500.41;;;17.10;100.00
38253;BME280;24785;52.372;20.672;2023-07-13T21:33:53;100488.31;;;17.16;100.00
38253;BME280;24785;52.372;20.672;2023-07-13T21:43:54;100486.38;;;17.08;100.00
38253;BME280;24785;52.372;20.672;2023-07-13T21:53:55;100484.25;;;16.88;100.00
38253;BME280;24785;52.372;20.672;2023-07-13T22:03:56;100490.81;;;16.64;100.00
38253;BME280;24785;52.372;20.672;2023-07-13T22:13:57;100482.16;;;16.54;100.00
38253;BME280;24785;52.372;20.672;2023-07-13T22:23:58;100489.09;;;16.37;100.00
38253;BME280;24785;52.372;20.672;2023-07-13T22:33:59;100495.34;;;16.16;100.00
38253;BME280;24785;52.372;20.672;2023-07-13T22:44:00;100483.84;;;15.88;100.00
38253;BME280;24785;52.372;20.672;2023-07-13T22:54:00;100481.81;;;15.71;100.00
38253;BME280;24785;52.372;20.672;2023-07-13T23:04:14;100477.72;;;15.60;100.00
38253;BME280;24785;52.372;20.672;2023-07-13T23:14:15;100482.34;;;15.46;100.00
38253;BME280;24785;52.372;20.672;2023-07-13T23:24:16;100492.28;;;15.36;100.00
38253;BME280;24785;52.372;20.672;2023-07-13T23:34:17;100500.28;;;15.28;100.00
38253;BME280;24785;52.372;20.672;2023-07-13T23:44:18;100512.09;;;15.18;100.00
38253;BME280;24785;52.372;20.672;2023-07-13T23:54:19;100516.69;;;15.04;100.00
